sensor_id;sensor_type;location;lat;lon;timestamp;temperature;humidity
59651;DHT22;45954;49.768;8.636;2023-08-12T00:01:49;22.70;99.90
59651;DHT22;45954;49.768;8.636;2023-08-12T00:04:15;22.70;99.90
59651;DHT22;45954;49.768;8.636;2023-08-12T00:06:42;22.60;99.90
59651;DHT22;45954;49.768;8.636;2023-08-12T00:09:09;22.70;99.90
59651;DHT22;45954;49.768;8.636;2023-08-12T00:11:40;22.60;99.90
59651;DHT22;45954;49.768;8.636;2023-08-12T00:14:06;22.60;99.90
59651;DHT22;45954;49.768;8.636;2023-08-12T00:16:32;22.60;99.90
59651;DHT22;45954;49.768;8.636;2023-08-12T00:18:58;22.60;99.90
59651;DHT22;45954;49.768;8.636;2023-08-12T00:21:25;22.70;99.90
59651;DHT22;45954;49.768;8.636;2023-08-12T00:23:51;22.60;99.90
59651;DHT22;45954;49.768;8.636;2023-08-12T00:26:17;22.60;99.90
59651;DHT22;45954;49.768;8.636;2023-08-12T00:28:43;22.70;99.90
59651;DHT22;45954;49.768;8.636;2023-08-12T00:31:08;22.60;99.90
59651;DHT22;45954;49.768;8.636;2023-08-12T00:33:34;22.70;99.90
59651;DHT22;45954;49.768;8.636;2023-08-12T00:36:00;22.70;99.90
59651;DHT22;45954;49.768;8.636;2023-08-12T00:38:27;22.60;99.90
59651;DHT22;45954;49.768;8.636;2023-08-12T00:40:53;22.60;99.90
59651;DHT22;45954;49.768;8.636;2023-08-12T00:43:19;22.70;99.90
59651;DHT22;45954;49.768;8.636;2023-08-12T00:45:45;22.70;99.90
59651;DHT22;45954;49.768;8.636;2023-08-12T00:48:11;22.80;99.90
59651;DHT22;45954;49.768;8.636;2023-08-12T00:50:39;22.90;99.90
59651;DHT22;45954;49.768;8.636;2023-08-12T00:53:06;23.00;99.90
59651;DHT22;45954;49.768;8.636;2023-08-12T00:55:33;23.10;99.90
59651;DHT22;45954;49.768;8.636;2023-08-12T00:58:00;23.10;99.90
59651;DHT22;45954;49.768;8.636;2023-08-12T01:00:26;23.00;99.90
59651;DHT22;45954;49.768;8.636;2023-08-12T01:02:52;23.00;99.90
59651;DHT22;45954;49.768;8.636;2023-08-12T01:05:19;23.10;99.90
59651;DHT22;45954;49.768;8.636;2023-08-12T01:07:45;23.20;99.90
59651;DHT22;45954;49.768;8.636;2023-08-12T01:10:13;23.20;99.90
59651;DHT22;45954;49.768;8.636;2023-08-12T01:12:59;23.30;99.90
59651;DHT22;45954;49.768;8.636;2023-08-12T01:15:43;23.20;99.90
59651;DHT22;45954;49.768;8.636;2023-08-12T01:18:11;23.20;99.90
59651;DHT22;45954;49.768;8.636;2023-08-12T01:20:39;23.10;99.90
59651;DHT22;45954;49.768;8.636;2023-08-12T01:23:15;23.00;99.90
59651;DHT22;45954;49.768;8.636;2023-08-12T01:25:42;22.90;99.90
59651;DHT22;45954;49.768;8.636;2023-08-12T01:28:08;22.90;99.90
59651;DHT22;45954;49.768;8.636;2023-08-12T01:30:43;22.80;99.90
59651;DHT22;45954;49.768;8.636;2023-08-12T01:33:25;22.80;99.90
59651;DHT22;45954;49.768;8.636;2023-08-12T01:36:17;22.70;99.90
59651;DHT22;45954;49.768;8.636;2023-08-12T01:38:45;22.30;99.90
59651;DHT22;45954;49.768;8.636;2023-08-12T01:41:15;22.20;99.90
59651;DHT22;45954;49.768;8.636;2023-08-12T01:43:42;22.20;99.90
59651;DHT22;45954;49.768;8.636;2023-08-12T01:46:09;22.30;99.90
59651;DHT22;45954;49.768;8.636;2023-08-12T01:48:35;22.30;99.90
59651;DHT22;45954;49.768;8.636;2023-08-12T01:51:01;22.20;99.90
59651;DHT22;45954;49.768;8.636;2023-08-12T01:53:27;22.00;99.90
59651;DHT22;45954;49.768;8.636;2023-08-12T01:55:53;21.90;99.90
59651;DHT22;45954;49.768;8.636;2023-08-12T01:58:19;22.10;99.90
59651;DHT22;45954;49.768;8.636;2023-08-12T02:00:45;22.20;99.90
59651;DHT22;45954;49.768;8.636;2023-08-12T02:03:11;22.30;99.90
59651;DHT22;45954;49.768;8.636;2023-08-12T02:05:36;22.30;99.90
59651;DHT22;45954;49.768;8.636;2023-08-12T02:08:07;22.30;99.90
59651;DHT22;45954;49.768;8.636;2023-08-12T02:10:32;22.20;99.90
59651;DHT22;45954;49.768;8.636;2023-08-12T02:12:58;22.10;99.90
59651;DHT22;45954;49.768;8.636;2023-08-12T02:15:24;22.10;99.90
59651;DHT22;45954;49.768;8.636;2023-08-12T02:17:50;22.00;99.90
59651;DHT22;45954;49.768;8.636;2023-08-12T02:20:16;21.80;99.90
59651;DHT22;45954;49.768;8.636;2023-08-12T02:22:42;21.80;99.90
59651;DHT22;45954;49.768;8.636;2023-08-12T02:25:08;21.80;99.90
59651;DHT22;45954;49.768;8.636;2023-08-12T02:27:34;21.60;99.90
59651;DHT22;45954;49.768;8.636;2023-08-12T02:29:59;21.70;99.90
59651;DHT22;45954;49.768;8.636;2023-08-12T02:32:25;21.80;99.90
59651;DHT22;45954;49.768;8.636;2023-08-12T02:34:51;21.80;99.90
59651;DHT22;45954;49.768;8.636;2023-08-12T02:37:17;21.80;99.90
59651;DHT22;45954;49.768;8.636;2023-08-12T02:39:43;21.70;99.90
59651;DHT22;45954;49.768;8.636;2023-08-12T02:42:09;21.60;99.90
59651;DHT22;45954;49.768;8.636;2023-08-12T02:44:35;21.50;99.90
59651;DHT22;45954;49.768;8.636;2023-08-12T02:47:01;21.20;99.90
59651;DHT22;45954;49.768;8.636;2023-08-12T02:49:27;21.20;99.90
59651;DHT22;45954;49.768;8.636;2023-08-12T02:51:53;21.40;99.90
59651;DHT22;45954;49.768;8.636;2023-08-12T02:54:19;21.50;99.90
59651;DHT22;45954;49.768;8.636;2023-08-12T02:56:44;21.60;99.90
59651;DHT22;45954;49.768;8.636;2023-08-12T02:59:10;21.80;99.90
59651;DHT22;45954;49.768;8.636;2023-08-12T03:01:36;21.90;99.90
59651;DHT22;45954;49.768;8.636;2023-08-12T03:04:02;21.90;99.90
59651;DHT22;45954;49.768;8.636;2023-08-12T03:06:28;21.90;99.90
59651;DHT22;45954;49.768;8.636;2023-08-12T03:08:54;21.90;99.90
59651;DHT22;45954;49.768;8.636;2023-08-12T03:11:20;21.90;99.90
59651;DHT22;45954;49.768;8.636;2023-08-12T03:13:46;21.80;99.90
59651;DHT22;45954;49.768;8.636;2023-08-12T03:16:12;21.90;99.90
59651;DHT22;45954;49.768;8.636;2023-08-12T03:18:41;22.00;99.90
59651;DHT22;45954;49.768;8.636;2023-08-12T03:21:10;22.10;99.90
59651;DHT22;45954;49.768;8.636;2023-08-12T03:23:37;22.10;99.90
59651;DHT22;45954;49.768;8.636;2023-08-12T03:26:04;22.00;99.90
59651;DHT22;45954;49.768;8.636;2023-08-12T03:28:30;22.00;99.90
59651;DHT22;45954;49.768;8.636;2023-08-12T03:30:56;21.70;99.90
59651;DHT22;45954;49.768;8.636;2023-08-12T03:33:22;21.70;99.90
59651;DHT22;45954;49.768;8.636;2023-08-12T03:35:49;21.70;99.90
59651;DHT22;45954;49.768;8.636;2023-08-12T03:38:15;21.70;99.90
59651;DHT22;45954;49.768;8.636;2023-08-12T03:40:42;21.60;99.90
59651;DHT22;45954;49.768;8.636;2023-08-12T03:43:08;21.70;99.90
59651;DHT22;45954;49.768;8.636;2023-08-12T03:45:41;21.70;99.90
59651;DHT22;45954;49.768;8.636;2023-08-12T03:48:08;21.60;99.90
59651;DHT22;45954;49.768;8.636;2023-08-12T03:50:35;21.70;99.90
59651;DHT22;45954;49.768;8.636;2023-08-12T03:53:02;21.70;99.90
59651;DHT22;45954;49.768;8.636;2023-08-12T03:55:30;21.70;99.90
59651;DHT22;45954;49.768;8.636;2023-08-12T03:57:58;21.60;99.90
59651;DHT22;45954;49.768;8.636;2023-08-12T04:00:24;21.70;99.90
59651;DHT22;45954;49.768;8.636;2023-08-12T04:02:50;21.70;99.90
59651;DHT22;45954;49.768;8.636;2023-08-12T04:05:16;21.30;99.90
59651;DHT22;45954;49.768;8.636;2023-08-12T04:07:42;21.10;99.90
59651;DHT22;45954;49.768;8.636;2023-08-12T04:10:08;21.20;99.90
59651;DHT22;45954;49.768;8.636;2023-08-12T04:12:34;21.30;99.90
59651;DHT22;45954;49.768;8.636;2023-08-12T04:15:00;21.40;99.90
59651;DHT22;45954;49.768;8.636;2023-08-12T04:17:30;21.50;99.90
59651;DHT22;45954;49.768;8.636;2023-08-12T04:19:56;21.60;99.90
59651;DHT22;45954;49.768;8.636;2023-08-12T04:22:21;21.70;99.90
59651;DHT22;45954;49.768;8.636;2023-08-12T04:24:48;21.70;99.90
59651;DHT22;45954;49.768;8.636;2023-08-12T04:27:14;21.70;99.90
59651;DHT22;45954;49.768;8.636;2023-08-12T04:29:42;21.70;99.90
59651;DHT22;45954;49.768;8.636;2023-08-12T04:32:08;21.70;99.90
59651;DHT22;45954;49.768;8.636;2023-08-12T04:34:34;21.60;99.90
59651;DHT22;45954;49.768;8.636;2023-08-12T04:37:00;21.40;99.90
59651;DHT22;45954;49.768;8.636;2023-08-12T04:39:25;21.50;99.90
59651;DHT22;45954;49.768;8.636;2023-08-12T04:41:51;21.60;99.90
59651;DHT22;45954;49.768;8.636;2023-08-12T04:44:17;21.70;99.90
59651;DHT22;45954;49.768;8.636;2023-08-12T04:46:43;21.80;99.90
59651;DHT22;45954;49.768;8.636;2023-08-12T04:49:09;21.80;99.90
59651;DHT22;45954;49.768;8.636;2023-08-12T04:51:35;21.80;99.90
59651;DHT22;45954;49.768;8.636;2023-08-12T04:54:00;21.80;99.90
59651;DHT22;45954;49.768;8.636;2023-08-12T04:56:27;21.90;99.90
59651;DHT22;45954;49.768;8.636;2023-08-12T04:58:56;21.90;99.90
59651;DHT22;45954;49.768;8.636;2023-08-12T05:01:22;21.70;99.90
59651;DHT22;45954;49.768;8.636;2023-08-12T05:03:48;21.50;99.90
59651;DHT22;45954;49.768;8.636;2023-08-12T05:06:14;21.60;99.90
59651;DHT22;45954;49.768;8.636;2023-08-12T05:08:40;21.70;99.90
59651;DHT22;45954;49.768;8.636;2023-08-12T05:11:05;21.70;99.90
59651;DHT22;45954;49.768;8.636;2023-08-12T05:13:31;21.90;99.90
59651;DHT22;45954;49.768;8.636;2023-08-12T05:15:57;22.00;99.90
59651;DHT22;45954;49.768;8.636;2023-08-12T05:18:23;22.00;99.90
59651;DHT22;45954;49.768;8.636;2023-08-12T05:20:51;22.10;99.90
59651;DHT22;45954;49.768;8.636;2023-08-12T05:23:17;22.20;99.90
59651;DHT22;45954;49.768;8.636;2023-08-12T05:25:43;22.20;99.90
59651;DHT22;45954;49.768;8.636;2023-08-12T05:28:09;22.10;99.90
59651;DHT22;45954;49.768;8.636;2023-08-12T05:30:35;22.10;99.90
59651;DHT22;45954;49.768;8.636;2023-08-12T05:33:01;22.30;99.90
59651;DHT22;45954;49.768;8.636;2023-08-12T05:35:28;22.50;99.90
59651;DHT22;45954;49.768;8.636;2023-08-12T05:37:53;22.40;99.90
59651;DHT22;45954;49.768;8.636;2023-08-12T05:40:20;22.40;99.90
59651;DHT22;45954;49.768;8.636;2023-08-12T05:42:45;22.50;99.90
59651;DHT22;45954;49.768;8.636;2023-08-12T05:45:11;22.50;99.90
59651;DHT22;45954;49.768;8.636;2023-08-12T05:47:37;22.50;99.90
59651;DHT22;45954;49.768;8.636;2023-08-12T05:50:03;22.40;99.90
59651;DHT22;45954;49.768;8.636;2023-08-12T05:52:30;22.60;99.90
59651;DHT22;45954;49.768;8.636;2023-08-12T05:54:55;22.60;99.90
59651;DHT22;45954;49.768;8.636;2023-08-12T05:57:21;22.80;99.90
59651;DHT22;45954;49.768;8.636;2023-08-12T05:59:47;22.90;99.90
59651;DHT22;45954;49.768;8.636;2023-08-12T06:02:13;23.20;99.90
59651;DHT22;45954;49.768;8.636;2023-08-12T06:04:39;23.30;99.90
59651;DHT22;45954;49.768;8.636;2023-08-12T06:07:05;23.40;99.90
59651;DHT22;45954;49.768;8.636;2023-08-12T06:09:30;23.60;99.90
59651;DHT22;45954;49.768;8.636;2023-08-12T06:11:56;23.70;99.90
59651;DHT22;45954;49.768;8.636;2023-08-12T06:14:22;23.80;99.90
59651;DHT22;45954;49.768;8.636;2023-08-12T06:16:48;23.90;99.90
59651;DHT22;45954;49.768;8.636;2023-08-12T06:19:14;23.80;99.90
59651;DHT22;45954;49.768;8.636;2023-08-12T06:21:39;23.80;99.90
59651;DHT22;45954;49.768;8.636;2023-08-12T06:24:05;23.70;99.90
59651;DHT22;45954;49.768;8.636;2023-08-12T06:26:31;23.60;99.90
59651;DHT22;45954;49.768;8.636;2023-08-12T06:28:58;23.50;99.90
59651;DHT22;45954;49.768;8.636;2023-08-12T06:31:23;23.50;99.90
59651;DHT22;45954;49.768;8.636;2023-08-12T06:33:49;23.20;99.90
59651;DHT22;45954;49.768;8.636;2023-08-12T06:36:16;23.30;99.90
59651;DHT22;45954;49.768;8.636;2023-08-12T06:38:42;23.50;99.90
59651;DHT22;45954;49.768;8.636;2023-08-12T06:41:08;23.50;99.90
59651;DHT22;45954;49.768;8.636;2023-08-12T06:43:34;23.80;99.90
59651;DHT22;45954;49.768;8.636;2023-08-12T06:46:00;23.80;99.90
59651;DHT22;45954;49.768;8.636;2023-08-12T06:48:26;23.90;99.90
59651;DHT22;45954;49.768;8.636;2023-08-12T06:50:56;23.80;99.90
59651;DHT22;45954;49.768;8.636;2023-08-12T06:53:22;23.80;99.90
59651;DHT22;45954;49.768;8.636;2023-08-12T06:55:48;23.90;99.90
59651;DHT22;45954;49.768;8.636;2023-08-12T06:58:14;24.00;99.90
59651;DHT22;45954;49.768;8.636;2023-08-12T07:00:41;24.00;99.90
59651;DHT22;45954;49.768;8.636;2023-08-12T07:03:07;23.80;99.90
59651;DHT22;45954;49.768;8.636;2023-08-12T07:05:33;23.80;99.90
59651;DHT22;45954;49.768;8.636;2023-08-12T07:07:58;23.80;99.90
59651;DHT22;45954;49.768;8.636;2023-08-12T07:10:24;23.70;99.90
59651;DHT22;45954;49.768;8.636;2023-08-12T07:12:50;23.80;99.90
59651;DHT22;45954;49.768;8.636;2023-08-12T07:15:16;23.90;99.90
59651;DHT22;45954;49.768;8.636;2023-08-12T07:17:42;23.90;99.90
59651;DHT22;45954;49.768;8.636;2023-08-12T07:20:08;23.60;99.90
59651;DHT22;45954;49.768;8.636;2023-08-12T07:22:34;23.50;99.90
59651;DHT22;45954;49.768;8.636;2023-08-12T07:25:00;23.50;99.90
59651;DHT22;45954;49.768;8.636;2023-08-12T07:27:27;23.70;99.90
59651;DHT22;45954;49.768;8.636;2023-08-12T07:29:53;23.80;99.90
59651;DHT22;45954;49.768;8.636;2023-08-12T07:32:18;23.90;99.90
59651;DHT22;45954;49.768;8.636;2023-08-12T07:34:45;24.10;99.90
59651;DHT22;45954;49.768;8.636;2023-08-12T07:37:11;24.10;99.90
59651;DHT22;45954;49.768;8.636;2023-08-12T07:39:37;24.20;99.90
59651;DHT22;45954;49.768;8.636;2023-08-12T07:42:03;24.20;99.90
59651;DHT22;45954;49.768;8.636;2023-08-12T07:44:29;24.20;99.90
59651;DHT22;45954;49.768;8.636;2023-08-12T07:46:55;24.40;99.90
59651;DHT22;45954;49.768;8.636;2023-08-12T07:49:22;24.40;99.90
59651;DHT22;45954;49.768;8.636;2023-08-12T07:51:48;24.40;99.90
59651;DHT22;45954;49.768;8.636;2023-08-12T07:54:14;24.80;99.90
59651;DHT22;45954;49.768;8.636;2023-08-12T07:56:40;24.80;99.90
59651;DHT22;45954;49.768;8.636;2023-08-12T07:59:05;24.60;99.90
59651;DHT22;45954;49.768;8.636;2023-08-12T08:01:31;24.80;99.90
59651;DHT22;45954;49.768;8.636;2023-08-12T08:03:57;25.00;99.90
59651;DHT22;45954;49.768;8.636;2023-08-12T08:06:23;25.10;99.90
59651;DHT22;45954;49.768;8.636;2023-08-12T08:08:49;25.20;99.90
59651;DHT22;45954;49.768;8.636;2023-08-12T08:11:15;25.30;99.90
59651;DHT22;45954;49.768;8.636;2023-08-12T08:13:41;25.40;99.90
59651;DHT22;45954;49.768;8.636;2023-08-12T08:16:07;25.20;99.90
59651;DHT22;45954;49.768;8.636;2023-08-12T08:18:33;25.40;99.90
59651;DHT22;45954;49.768;8.636;2023-08-12T08:20:58;25.20;99.90
59651;DHT22;45954;49.768;8.636;2023-08-12T08:23:24;25.20;99.90
59651;DHT22;45954;49.768;8.636;2023-08-12T08:25:50;25.30;99.90
59651;DHT22;45954;49.768;8.636;2023-08-12T08:28:16;25.30;99.90
59651;DHT22;45954;49.768;8.636;2023-08-12T08:30:43;25.30;99.90
59651;DHT22;45954;49.768;8.636;2023-08-12T08:33:08;25.10;99.90
59651;DHT22;45954;49.768;8.636;2023-08-12T08:35:34;25.20;99.90
59651;DHT22;45954;49.768;8.636;2023-08-12T08:38:01;25.20;99.90
59651;DHT22;45954;49.768;8.636;2023-08-12T08:40:27;25.30;99.90
59651;DHT22;45954;49.768;8.636;2023-08-12T08:42:54;25.60;99.90
59651;DHT22;45954;49.768;8.636;2023-08-12T08:45:25;25.90;99.90
59651;DHT22;45954;49.768;8.636;2023-08-12T08:47:51;26.10;99.90
59651;DHT22;45954;49.768;8.636;2023-08-12T08:50:18;26.10;99.90
59651;DHT22;45954;49.768;8.636;2023-08-12T08:52:45;25.70;99.90
59651;DHT22;45954;49.768;8.636;2023-08-12T08:55:12;25.70;99.90
59651;DHT22;45954;49.768;8.636;2023-08-12T08:57:38;25.60;99.90
59651;DHT22;45954;49.768;8.636;2023-08-12T09:00:06;25.40;99.90
59651;DHT22;45954;49.768;8.636;2023-08-12T09:02:37;25.70;99.90
59651;DHT22;45954;49.768;8.636;2023-08-12T09:05:04;26.00;99.90
59651;DHT22;45954;49.768;8.636;2023-08-12T09:07:32;25.80;99.90
59651;DHT22;45954;49.768;8.636;2023-08-12T09:10:01;25.80;99.90
59651;DHT22;45954;49.768;8.636;2023-08-12T09:12:30;25.60;99.90
59651;DHT22;45954;49.768;8.636;2023-08-12T09:14:57;25.60;99.90
59651;DHT22;45954;49.768;8.636;2023-08-12T09:17:23;25.50;99.90
59651;DHT22;45954;49.768;8.636;2023-08-12T09:19:49;25.40;99.90
59651;DHT22;45954;49.768;8.636;2023-08-12T09:22:16;25.40;99.90
59651;DHT22;45954;49.768;8.636;2023-08-12T09:24:43;25.80;99.90
59651;DHT22;45954;49.768;8.636;2023-08-12T09:27:09;26.10;99.90
59651;DHT22;45954;49.768;8.636;2023-08-12T09:29:36;26.30;99.90
59651;DHT22;45954;49.768;8.636;2023-08-12T09:32:19;26.10;99.90
59651;DHT22;45954;49.768;8.636;2023-08-12T09:34:52;25.90;99.90
59651;DHT22;45954;49.768;8.636;2023-08-12T09:37:20;26.10;99.90
59651;DHT22;45954;49.768;8.636;2023-08-12T09:39:48;26.30;99.90
59651;DHT22;45954;49.768;8.636;2023-08-12T09:42:15;26.30;99.90
59651;DHT22;45954;49.768;8.636;2023-08-12T09:44:42;26.80;99.90
59651;DHT22;45954;49.768;8.636;2023-08-12T09:47:08;27.10;99.90
59651;DHT22;45954;49.768;8.636;2023-08-12T09:49:36;27.30;99.90
59651;DHT22;45954;49.768;8.636;2023-08-12T09:52:04;27.30;99.90
59651;DHT22;45954;49.768;8.636;2023-08-12T09:54:34;27.10;99.90
59651;DHT22;45954;49.768;8.636;2023-08-12T09:57:02;27.40;99.90
59651;DHT22;45954;49.768;8.636;2023-08-12T09:59:32;27.30;99.90
59651;DHT22;45954;49.768;8.636;2023-08-12T10:02:00;27.30;99.90
59651;DHT22;45954;49.768;8.636;2023-08-12T10:04:39;27.10;99.90
59651;DHT22;45954;49.768;8.636;2023-08-12T10:07:09;26.70;99.90
59651;DHT22;45954;49.768;8.636;2023-08-12T10:09:36;26.50;99.90
59651;DHT22;45954;49.768;8.636;2023-08-12T10:12:03;26.40;99.90
59651;DHT22;45954;49.768;8.636;2023-08-12T10:14:31;26.40;99.90
59651;DHT22;45954;49.768;8.636;2023-08-12T10:16:58;26.30;99.90
59651;DHT22;45954;49.768;8.636;2023-08-12T10:19:24;26.00;99.90
59651;DHT22;45954;49.768;8.636;2023-08-12T10:21:55;25.70;99.90
59651;DHT22;45954;49.768;8.636;2023-08-12T10:24:26;25.60;99.90
59651;DHT22;45954;49.768;8.636;2023-08-12T10:26:53;25.50;99.90
59651;DHT22;45954;49.768;8.636;2023-08-12T10:29:20;25.60;99.90
59651;DHT22;45954;49.768;8.636;2023-08-12T10:31:48;25.50;99.90
59651;DHT22;45954;49.768;8.636;2023-08-12T10:34:20;25.50;99.90
59651;DHT22;45954;49.768;8.636;2023-08-12T10:36:48;25.40;99.90
59651;DHT22;45954;49.768;8.636;2023-08-12T10:39:32;25.30;99.90
59651;DHT22;45954;49.768;8.636;2023-08-12T10:41:59;25.40;99.90
59651;DHT22;45954;49.768;8.636;2023-08-12T10:44:40;25.30;99.90
59651;DHT22;45954;49.768;8.636;2023-08-12T10:47:15;24.80;99.90
59651;DHT22;45954;49.768;8.636;2023-08-12T10:49:49;24.80;99.90
59651;DHT22;45954;49.768;8.636;2023-08-12T10:52:27;24.60;99.90
59651;DHT22;45954;49.768;8.636;2023-08-12T10:55:24;24.30;99.90
59651;DHT22;45954;49.768;8.636;2023-08-12T10:57:54;24.30;99.90
59651;DHT22;45954;49.768;8.636;2023-08-12T11:00:24;24.40;99.90
59651;DHT22;45954;49.768;8.636;2023-08-12T11:02:53;24.20;99.90
59651;DHT22;45954;49.768;8.636;2023-08-12T11:05:21;24.00;99.90
59651;DHT22;45954;49.768;8.636;2023-08-12T11:10:25;24.10;99.90
59651;DHT22;45954;49.768;8.636;2023-08-12T11:15:18;23.20;99.90
59651;DHT22;45954;49.768;8.636;2023-08-12T11:17:46;23.00;99.90
59651;DHT22;45954;49.768;8.636;2023-08-12T11:20:13;22.70;99.90
59651;DHT22;45954;49.768;8.636;2023-08-12T11:22:43;22.70;99.90
59651;DHT22;45954;49.768;8.636;2023-08-12T11:25:11;22.90;99.90
59651;DHT22;45954;49.768;8.636;2023-08-12T11:27:44;23.10;99.90
59651;DHT22;45954;49.768;8.636;2023-08-12T11:30:12;23.10;99.90
59651;DHT22;45954;49.768;8.636;2023-08-12T11:32:43;23.10;99.90
59651;DHT22;45954;49.768;8.636;2023-08-12T11:35:12;23.20;99.90
59651;DHT22;45954;49.768;8.636;2023-08-12T11:37:42;23.10;99.90
59651;DHT22;45954;49.768;8.636;2023-08-12T11:40:11;22.90;99.90
59651;DHT22;45954;49.768;8.636;2023-08-12T11:42:42;22.80;99.90
59651;DHT22;45954;49.768;8.636;2023-08-12T11:45:10;23.00;99.90
59651;DHT22;45954;49.768;8.636;2023-08-12T11:47:40;23.10;99.90
59651;DHT22;45954;49.768;8.636;2023-08-12T11:50:08;23.10;99.90
59651;DHT22;45954;49.768;8.636;2023-08-12T11:52:36;23.10;99.90
59651;DHT22;45954;49.768;8.636;2023-08-12T11:55:03;23.10;99.90
59651;DHT22;45954;49.768;8.636;2023-08-12T11:57:31;23.10;99.90
59651;DHT22;45954;49.768;8.636;2023-08-12T12:00:05;23.10;99.90
59651;DHT22;45954;49.768;8.636;2023-08-12T12:02:52;23.10;99.90
59651;DHT22;45954;49.768;8.636;2023-08-12T12:05:26;23.10;99.90
59651;DHT22;45954;49.768;8.636;2023-08-12T12:07:54;23.00;99.90
59651;DHT22;45954;49.768;8.636;2023-08-12T12:10:31;23.00;99.90
59651;DHT22;45954;49.768;8.636;2023-08-12T12:13:00;23.00;99.90
59651;DHT22;45954;49.768;8.636;2023-08-12T12:15:26;22.80;99.90
59651;DHT22;45954;49.768;8.636;2023-08-12T12:17:52;22.70;99.90
59651;DHT22;45954;49.768;8.636;2023-08-12T12:20:18;22.70;99.90
59651;DHT22;45954;49.768;8.636;2023-08-12T12:22:47;22.50;99.90
59651;DHT22;45954;49.768;8.636;2023-08-12T12:25:15;22.50;99.90
59651;DHT22;45954;49.768;8.636;2023-08-12T12:27:45;22.60;99.90
59651;DHT22;45954;49.768;8.636;2023-08-12T12:30:13;22.60;99.90
59651;DHT22;45954;49.768;8.636;2023-08-12T12:32:40;22.60;99.90
59651;DHT22;45954;49.768;8.636;2023-08-12T12:35:07;22.90;99.90
59651;DHT22;45954;49.768;8.636;2023-08-12T12:37:33;23.10;99.90
59651;DHT22;45954;49.768;8.636;2023-08-12T12:39:59;23.30;99.90
59651;DHT22;45954;49.768;8.636;2023-08-12T12:42:25;23.40;99.90
59651;DHT22;45954;49.768;8.636;2023-08-12T12:44:51;23.50;99.90
59651;DHT22;45954;49.768;8.636;2023-08-12T12:47:17;23.70;99.90
59651;DHT22;45954;49.768;8.636;2023-08-12T12:49:45;24.10;99.90
59651;DHT22;45954;49.768;8.636;2023-08-12T12:52:11;24.50;99.90
59651;DHT22;45954;49.768;8.636;2023-08-12T12:54:37;25.00;99.90
59651;DHT22;45954;49.768;8.636;2023-08-12T12:57:03;25.40;99.90
59651;DHT22;45954;49.768;8.636;2023-08-12T12:59:31;25.40;99.90
59651;DHT22;45954;49.768;8.636;2023-08-12T13:01:57;25.60;99.90
59651;DHT22;45954;49.768;8.636;2023-08-12T13:04:23;25.70;99.90
59651;DHT22;45954;49.768;8.636;2023-08-12T13:06:49;25.90;99.90
59651;DHT22;45954;49.768;8.636;2023-08-12T13:09:15;25.90;99.90
59651;DHT22;45954;49.768;8.636;2023-08-12T13:11:41;26.20;99.90
59651;DHT22;45954;49.768;8.636;2023-08-12T13:14:07;25.80;99.90
59651;DHT22;45954;49.768;8.636;2023-08-12T13:16:32;25.20;99.90
59651;DHT22;45954;49.768;8.636;2023-08-12T13:18:58;25.40;99.90
59651;DHT22;45954;49.768;8.636;2023-08-12T13:21:26;25.80;99.90
59651;DHT22;45954;49.768;8.636;2023-08-12T13:23:53;26.20;99.90
59651;DHT22;45954;49.768;8.636;2023-08-12T13:26:20;26.50;99.90
59651;DHT22;45954;49.768;8.636;2023-08-12T13:28:47;27.10;99.90
59651;DHT22;45954;49.768;8.636;2023-08-12T13:31:14;27.80;99.90
59651;DHT22;45954;49.768;8.636;2023-08-12T13:33:40;28.10;99.90
59651;DHT22;45954;49.768;8.636;2023-08-12T13:36:06;28.40;99.90
59651;DHT22;45954;49.768;8.636;2023-08-12T13:38:31;28.70;99.90
59651;DHT22;45954;49.768;8.636;2023-08-12T13:40:57;28.30;99.90
59651;DHT22;45954;49.768;8.636;2023-08-12T13:43:23;28.20;99.90
59651;DHT22;45954;49.768;8.636;2023-08-12T13:45:49;28.20;99.90
59651;DHT22;45954;49.768;8.636;2023-08-12T13:48:15;28.40;99.90
59651;DHT22;45954;49.768;8.636;2023-08-12T13:50:41;27.90;99.90
59651;DHT22;45954;49.768;8.636;2023-08-12T13:53:07;28.30;99.90
59651;DHT22;45954;49.768;8.636;2023-08-12T13:55:33;29.10;99.90
59651;DHT22;45954;49.768;8.636;2023-08-12T13:57:58;29.50;99.90
59651;DHT22;45954;49.768;8.636;2023-08-12T14:00:24;29.30;99.90
59651;DHT22;45954;49.768;8.636;2023-08-12T14:02:51;28.90;99.90
59651;DHT22;45954;49.768;8.636;2023-08-12T14:05:17;29.20;99.90
59651;DHT22;45954;49.768;8.636;2023-08-12T14:07:43;29.10;99.90
59651;DHT22;45954;49.768;8.636;2023-08-12T14:10:08;28.60;99.90
59651;DHT22;45954;49.768;8.636;2023-08-12T14:12:34;28.00;99.90
59651;DHT22;45954;49.768;8.636;2023-08-12T14:15:01;27.90;99.90
59651;DHT22;45954;49.768;8.636;2023-08-12T14:17:27;27.70;99.90
59651;DHT22;45954;49.768;8.636;2023-08-12T14:19:53;27.90;99.90
59651;DHT22;45954;49.768;8.636;2023-08-12T14:22:20;27.80;99.90
59651;DHT22;45954;49.768;8.636;2023-08-12T14:24:46;28.00;99.90
59651;DHT22;45954;49.768;8.636;2023-08-12T14:27:17;28.40;99.90
59651;DHT22;45954;49.768;8.636;2023-08-12T14:29:44;29.30;99.90
59651;DHT22;45954;49.768;8.636;2023-08-12T14:32:10;29.90;99.90
59651;DHT22;45954;49.768;8.636;2023-08-12T14:34:36;30.10;99.90
59651;DHT22;45954;49.768;8.636;2023-08-12T14:37:03;29.60;99.90
59651;DHT22;45954;49.768;8.636;2023-08-12T14:39:29;29.10;99.90
59651;DHT22;45954;49.768;8.636;2023-08-12T14:41:55;29.10;99.90
59651;DHT22;45954;49.768;8.636;2023-08-12T14:44:21;29.00;99.90
59651;DHT22;45954;49.768;8.636;2023-08-12T14:46:47;28.60;99.90
59651;DHT22;45954;49.768;8.636;2023-08-12T14:49:13;28.40;99.90
59651;DHT22;45954;49.768;8.636;2023-08-12T14:51:38;28.10;99.90
59651;DHT22;45954;49.768;8.636;2023-08-12T14:54:05;27.80;99.90
59651;DHT22;45954;49.768;8.636;2023-08-12T14:56:31;27.60;99.90
59651;DHT22;45954;49.768;8.636;2023-08-12T14:58:57;27.50;99.90
59651;DHT22;45954;49.768;8.636;2023-08-12T15:01:23;27.60;99.90
59651;DHT22;45954;49.768;8.636;2023-08-12T15:03:50;27.90;99.90
59651;DHT22;45954;49.768;8.636;2023-08-12T15:06:16;28.10;99.90
59651;DHT22;45954;49.768;8.636;2023-08-12T15:08:42;28.60;99.90
59651;DHT22;45954;49.768;8.636;2023-08-12T15:11:09;28.90;99.90
59651;DHT22;45954;49.768;8.636;2023-08-12T15:13:34;28.20;99.90
59651;DHT22;45954;49.768;8.636;2023-08-12T15:16:00;27.90;99.90
59651;DHT22;45954;49.768;8.636;2023-08-12T15:18:26;27.90;99.90
59651;DHT22;45954;49.768;8.636;2023-08-12T15:20:52;28.00;99.90
59651;DHT22;45954;49.768;8.636;2023-08-12T15:23:18;27.70;99.90
59651;DHT22;45954;49.768;8.636;2023-08-12T15:25:44;27.10;99.90
59651;DHT22;45954;49.768;8.636;2023-08-12T15:28:11;27.00;99.90
59651;DHT22;45954;49.768;8.636;2023-08-12T15:30:37;27.10;99.90
59651;DHT22;45954;49.768;8.636;2023-08-12T15:33:04;26.80;99.90
59651;DHT22;45954;49.768;8.636;2023-08-12T15:35:30;26.60;99.90